sensor_id;sensor_type;location;lat;lon;timestamp;temperature;humidity
20858;DHT22;10589;53.636;10.012;2022-07-06T03:47:34;14.60;99.90
20858;DHT22;10589;53.636;10.012;2022-07-06T03:50:00;14.70;99.90
20858;DHT22;10589;53.636;10.012;2022-07-06T03:52:26;14.70;99.90
20858;DHT22;10589;53.636;10.012;2022-07-06T03:54:51;14.70;99.90
20858;DHT22;10589;53.636;10.012;2022-07-06T03:57:17;14.70;99.90
20858;DHT22;10589;53.636;10.012;2022-07-06T03:59:43;14.70;99.90
20858;DHT22;10589;53.636;10.012;2022-07-06T04:02:08;14.70;99.90
20858;DHT22;10589;53.636;10.012;2022-07-06T04:04:34;14.70;99.90
20858;DHT22;10589;53.636;10.012;2022-07-06T04:07:00;14.80;99.90
20858;DHT22;10589;53.636;10.012;2022-07-06T04:09:25;14.60;99.90
20858;DHT22;10589;53.636;10.012;2022-07-06T04:11:51;14.40;99.90
20858;DHT22;10589;53.636;10.012;2022-07-06T04:14:17;14.20;99.90
20858;DHT22;10589;53.636;10.012;2022-07-06T04:16:43;14.00;99.90
20858;DHT22;10589;53.636;10.012;2022-07-06T04:19:09;14.00;99.90
20858;DHT22;10589;53.636;10.012;2022-07-06T04:21:35;13.90;99.90
20858;DHT22;10589;53.636;10.012;2022-07-06T04:24:00;13.90;99.90
20858;DHT22;10589;53.636;10.012;2022-07-06T04:26:26;13.80;99.90
20858;DHT22;10589;53.636;10.012;2022-07-06T04:28:52;13.80;99.90
20858;DHT22;10589;53.636;10.012;2022-07-06T04:31:17;13.90;99.90
20858;DHT22;10589;53.636;10.012;2022-07-06T04:33:43;13.80;99.90
20858;DHT22;10589;53.636;10.012;2022-07-06T04:36:09;13.90;99.90
20858;DHT22;10589;53.636;10.012;2022-07-06T04:38:35;13.90;99.90
20858;DHT22;10589;53.636;10.012;2022-07-06T04:41:01;13.90;99.90
20858;DHT22;10589;53.636;10.012;2022-07-06T04:43:26;13.80;99.90
20858;DHT22;10589;53.636;10.012;2022-07-06T04:45:52;13.90;99.90
20858;DHT22;10589;53.636;10.012;2022-07-06T04:48:18;14.00;99.90
20858;DHT22;10589;53.636;10.012;2022-07-06T04:50:43;14.00;99.90
20858;DHT22;10589;53.636;10.012;2022-07-06T04:53:09;14.00;99.90
20858;DHT22;10589;53.636;10.012;2022-07-06T04:55:34;14.00;99.90
20858;DHT22;10589;53.636;10.012;2022-07-06T04:58:00;14.10;99.90
20858;DHT22;10589;53.636;10.012;2022-07-06T05:00:26;14.10;99.90
20858;DHT22;10589;53.636;10.012;2022-07-06T05:02:52;14.10;99.90
20858;DHT22;10589;53.636;10.012;2022-07-06T05:05:17;14.10;99.90
20858;DHT22;10589;53.636;10.012;2022-07-06T05:07:43;14.20;99.90
20858;DHT22;10589;53.636;10.012;2022-07-06T05:10:09;14.20;99.90
20858;DHT22;10589;53.636;10.012;2022-07-06T05:12:35;14.20;99.90
20858;DHT22;10589;53.636;10.012;2022-07-06T05:15:01;14.20;99.90
20858;DHT22;10589;53.636;10.012;2022-07-06T05:17:27;14.20;99.90
20858;DHT22;10589;53.636;10.012;2022-07-06T05:19:53;14.20;99.90
20858;DHT22;10589;53.636;10.012;2022-07-06T05:22:19;14.20;99.90
20858;DHT22;10589;53.636;10.012;2022-07-06T05:24:44;14.20;99.90
20858;DHT22;10589;53.636;10.012;2022-07-06T05:27:10;14.30;99.90
20858;DHT22;10589;53.636;10.012;2022-07-06T05:29:36;14.40;99.90
20858;DHT22;10589;53.636;10.012;2022-07-06T05:32:02;14.40;99.90
20858;DHT22;10589;53.636;10.012;2022-07-06T05:34:27;14.50;99.90
20858;DHT22;10589;53.636;10.012;2022-07-06T05:36:53;14.60;99.90
20858;DHT22;10589;53.636;10.012;2022-07-06T05:39:19;14.60;99.90
20858;DHT22;10589;53.636;10.012;2022-07-06T05:41:45;14.70;99.90
20858;DHT22;10589;53.636;10.012;2022-07-06T05:44:11;14.70;99.90
20858;DHT22;10589;53.636;10.012;2022-07-06T05:46:37;14.80;99.90
20858;DHT22;10589;53.636;10.012;2022-07-06T05:49:02;14.90;99.90
20858;DHT22;10589;53.636;10.012;2022-07-06T05:51:46;14.90;99.90
20858;DHT22;10589;53.636;10.012;2022-07-06T05:54:12;14.90;99.90
20858;DHT22;10589;53.636;10.012;2022-07-06T05:56:38;15.00;99.90
20858;DHT22;10589;53.636;10.012;2022-07-06T05:59:03;15.00;99.90
20858;DHT22;10589;53.636;10.012;2022-07-06T06:01:30;15.00;99.90
20858;DHT22;10589;53.636;10.012;2022-07-06T06:03:56;15.00;99.90
20858;DHT22;10589;53.636;10.012;2022-07-06T06:06:21;15.00;99.90
20858;DHT22;10589;53.636;10.012;2022-07-06T06:08:47;15.00;99.90
20858;DHT22;10589;53.636;10.012;2022-07-06T06:11:12;15.00;99.90
20858;DHT22;10589;53.636;10.012;2022-07-06T06:13:38;15.10;99.90
20858;DHT22;10589;53.636;10.012;2022-07-06T06:16:04;15.10;99.90
20858;DHT22;10589;53.636;10.012;2022-07-06T06:18:30;15.20;99.90
20858;DHT22;10589;53.636;10.012;2022-07-06T06:20:55;15.30;99.90
20858;DHT22;10589;53.636;10.012;2022-07-06T06:23:22;15.50;99.90
20858;DHT22;10589;53.636;10.012;2022-07-06T06:25:47;15.70;99.90
20858;DHT22;10589;53.636;10.012;2022-07-06T06:28:13;15.70;99.90
20858;DHT22;10589;53.636;10.012;2022-07-06T06:30:39;15.70;99.90
20858;DHT22;10589;53.636;10.012;2022-07-06T06:33:07;15.70;99.90
20858;DHT22;10589;53.636;10.012;2022-07-06T06:35:33;15.80;99.90
20858;DHT22;10589;53.636;10.012;2022-07-06T06:37:59;15.90;99.90
20858;DHT22;10589;53.636;10.012;2022-07-06T06:40:24;16.00;99.90
20858;DHT22;10589;53.636;10.012;2022-07-06T06:42:50;16.00;99.90
20858;DHT22;10589;53.636;10.012;2022-07-06T06:45:16;16.10;99.90
20858;DHT22;10589;53.636;10.012;2022-07-06T06:47:41;16.30;99.90
20858;DHT22;10589;53.636;10.012;2022-07-06T06:50:08;16.40;99.90
20858;DHT22;10589;53.636;10.012;2022-07-06T06:52:34;16.50;99.90
20858;DHT22;10589;53.636;10.012;2022-07-06T06:54:59;16.50;99.90
20858;DHT22;10589;53.636;10.012;2022-07-06T06:57:25;16.70;99.90
20858;DHT22;10589;53.636;10.012;2022-07-06T06:59:50;16.90;99.90
20858;DHT22;10589;53.636;10.012;2022-07-06T07:02:16;17.00;99.90
20858;DHT22;10589;53.636;10.012;2022-07-06T07:04:42;17.10;99.90
20858;DHT22;10589;53.636;10.012;2022-07-06T07:07:07;17.30;99.90
20858;DHT22;10589;53.636;10.012;2022-07-06T07:09:33;17.20;99.90
20858;DHT22;10589;53.636;10.012;2022-07-06T07:11:59;17.40;99.90
20858;DHT22;10589;53.636;10.012;2022-07-06T07:14:24;17.50;99.90
20858;DHT22;10589;53.636;10.012;2022-07-06T07:16:50;17.50;99.90
20858;DHT22;10589;53.636;10.012;2022-07-06T07:19:16;17.50;99.90
20858;DHT22;10589;53.636;10.012;2022-07-06T07:21:41;17.60;99.90
20858;DHT22;10589;53.636;10.012;2022-07-06T07:24:07;17.70;99.90
20858;DHT22;10589;53.636;10.012;2022-07-06T07:26:33;17.60;99.90
20858;DHT22;10589;53.636;10.012;2022-07-06T07:28:59;17.70;99.90
20858;DHT22;10589;53.636;10.012;2022-07-06T07:31:24;17.60;99.90
20858;DHT22;10589;53.636;10.012;2022-07-06T07:33:50;17.60;99.90
20858;DHT22;10589;53.636;10.012;2022-07-06T07:36:16;17.50;99.90
20858;DHT22;10589;53.636;10.012;2022-07-06T07:38:41;17.50;99.90
20858;DHT22;10589;53.636;10.012;2022-07-06T07:41:07;17.60;99.90
20858;DHT22;10589;53.636;10.012;2022-07-06T07:43:33;17.60;99.90
20858;DHT22;10589;53.636;10.012;2022-07-06T07:45:58;17.70;99.90
20858;DHT22;10589;53.636;10.012;2022-07-06T07:48:24;17.90;99.90
20858;DHT22;10589;53.636;10.012;2022-07-06T07:50:50;18.00;99.90
20858;DHT22;10589;53.636;10.012;2022-07-06T07:53:15;18.10;99.90
20858;DHT22;10589;53.636;10.012;2022-07-06T07:55:41;18.30;99.90
20858;DHT22;10589;53.636;10.012;2022-07-06T07:58:07;18.30;99.90
20858;DHT22;10589;53.636;10.012;2022-07-06T08:00:33;18.40;99.90
20858;DHT22;10589;53.636;10.012;2022-07-06T08:02:59;18.40;99.90
20858;DHT22;10589;53.636;10.012;2022-07-06T08:05:24;18.50;99.90
20858;DHT22;10589;53.636;10.012;2022-07-06T08:07:50;18.60;99.90
20858;DHT22;10589;53.636;10.012;2022-07-06T08:10:15;18.60;99.90
20858;DHT22;10589;53.636;10.012;2022-07-06T08:12:41;18.70;99.90
20858;DHT22;10589;53.636;10.012;2022-07-06T08:15:07;18.80;99.90
20858;DHT22;10589;53.636;10.012;2022-07-06T08:17:33;18.90;99.90
20858;DHT22;10589;53.636;10.012;2022-07-06T08:19:58;19.00;99.90
20858;DHT22;10589;53.636;10.012;2022-07-06T08:22:24;19.00;99.90
20858;DHT22;10589;53.636;10.012;2022-07-06T08:24:50;19.20;99.90
20858;DHT22;10589;53.636;10.012;2022-07-06T08:27:16;19.30;99.90
20858;DHT22;10589;53.636;10.012;2022-07-06T08:29:42;19.30;99.90
20858;DHT22;10589;53.636;10.012;2022-07-06T08:32:07;19.50;99.90
20858;DHT22;10589;53.636;10.012;2022-07-06T08:34:33;19.70;99.90
20858;DHT22;10589;53.636;10.012;2022-07-06T08:36:59;19.60;99.90
20858;DHT22;10589;53.636;10.012;2022-07-06T08:39:24;19.30;99.90
20858;DHT22;10589;53.636;10.012;2022-07-06T08:41:51;19.10;99.90
20858;DHT22;10589;53.636;10.012;2022-07-06T08:44:17;19.10;99.90
20858;DHT22;10589;53.636;10.012;2022-07-06T08:46:44;18.90;99.90
20858;DHT22;10589;53.636;10.012;2022-07-06T08:49:15;18.90;99.90
20858;DHT22;10589;53.636;10.012;2022-07-06T08:51:41;18.50;99.90
20858;DHT22;10589;53.636;10.012;2022-07-06T08:54:07;18.10;99.90
20858;DHT22;10589;53.636;10.012;2022-07-06T08:56:33;17.70;99.90
20858;DHT22;10589;53.636;10.012;2022-07-06T08:58:59;17.10;99.90
20858;DHT22;10589;53.636;10.012;2022-07-06T09:01:25;16.70;99.90
20858;DHT22;10589;53.636;10.012;2022-07-06T09:03:52;16.60;99.90
20858;DHT22;10589;53.636;10.012;2022-07-06T09:06:26;16.50;99.90
20858;DHT22;10589;53.636;10.012;2022-07-06T09:08:56;16.70;99.90
20858;DHT22;10589;53.636;10.012;2022-07-06T09:11:23;16.90;99.90
20858;DHT22;10589;53.636;10.012;2022-07-06T09:13:51;17.10;99.90
20858;DHT22;10589;53.636;10.012;2022-07-06T09:16:17;17.20;99.90
20858;DHT22;10589;53.636;10.012;2022-07-06T09:18:44;17.40;99.90
20858;DHT22;10589;53.636;10.012;2022-07-06T09:21:10;17.60;99.90
20858;DHT22;10589;53.636;10.012;2022-07-06T09:23:37;17.60;99.90
20858;DHT22;10589;53.636;10.012;2022-07-06T09:26:04;17.90;99.90
20858;DHT22;10589;53.636;10.012;2022-07-06T09:28:43;18.10;99.90
20858;DHT22;10589;53.636;10.012;2022-07-06T09:31:10;18.10;99.90
20858;DHT22;10589;53.636;10.012;2022-07-06T09:33:36;18.60;99.90
20858;DHT22;10589;53.636;10.012;2022-07-06T09:36:02;19.10;99.90
20858;DHT22;10589;53.636;10.012;2022-07-06T09:38:28;19.20;99.90
20858;DHT22;10589;53.636;10.012;2022-07-06T09:40:54;19.50;99.90
20858;DHT22;10589;53.636;10.012;2022-07-06T09:43:24;19.90;99.90
20858;DHT22;10589;53.636;10.012;2022-07-06T09:45:52;20.20;99.90
20858;DHT22;10589;53.636;10.012;2022-07-06T09:48:19;20.50;99.90
20858;DHT22;10589;53.636;10.012;2022-07-06T09:50:53;20.80;99.90
20858;DHT22;10589;53.636;10.012;2022-07-06T09:53:21;20.90;99.90
20858;DHT22;10589;53.636;10.012;2022-07-06T09:55:48;21.00;99.90
20858;DHT22;10589;53.636;10.012;2022-07-06T09:58:14;21.30;99.90
20858;DHT22;10589;53.636;10.012;2022-07-06T10:00:41;21.40;99.90
20858;DHT22;10589;53.636;10.012;2022-07-06T10:03:07;21.50;99.90
20858;DHT22;10589;53.636;10.012;2022-07-06T10:05:37;21.60;99.90
20858;DHT22;10589;53.636;10.012;2022-07-06T10:08:03;21.30;99.90
20858;DHT22;10589;53.636;10.012;2022-07-06T10:10:32;20.90;99.90
20858;DHT22;10589;53.636;10.012;2022-07-06T10:12:59;20.10;99.90
20858;DHT22;10589;53.636;10.012;2022-07-06T10:15:29;19.60;99.90
20858;DHT22;10589;53.636;10.012;2022-07-06T10:17:58;19.30;99.90
20858;DHT22;10589;53.636;10.012;2022-07-06T10:20:25;18.60;99.90
20858;DHT22;10589;53.636;10.012;2022-07-06T10:22:53;18.50;99.90
20858;DHT22;10589;53.636;10.012;2022-07-06T10:25:19;18.20;99.90
20858;DHT22;10589;53.636;10.012;2022-07-06T10:27:47;17.80;99.90
20858;DHT22;10589;53.636;10.012;2022-07-06T10:30:14;17.50;99.90
20858;DHT22;10589;53.636;10.012;2022-07-06T10:32:42;17.30;99.90
20858;DHT22;10589;53.636;10.012;2022-07-06T10:35:08;17.20;99.90
20858;DHT22;10589;53.636;10.012;2022-07-06T10:37:34;17.10;99.90
20858;DHT22;10589;53.636;10.012;2022-07-06T10:40:00;17.20;99.90
20858;DHT22;10589;53.636;10.012;2022-07-06T10:42:47;17.10;99.90
20858;DHT22;10589;53.636;10.012;2022-07-06T10:50:54;17.30;99.90
20858;DHT22;10589;53.636;10.012;2022-07-06T10:53:27;17.60;99.90
20858;DHT22;10589;53.636;10.012;2022-07-06T10:55:55;18.00;99.90
20858;DHT22;10589;53.636;10.012;2022-07-06T10:58:51;18.50;99.90
20858;DHT22;10589;53.636;10.012;2022-07-06T11:01:18;18.90;99.90
20858;DHT22;10589;53.636;10.012;2022-07-06T11:04:04;19.00;99.90
20858;DHT22;10589;53.636;10.012;2022-07-06T11:06:35;19.20;99.90
20858;DHT22;10589;53.636;10.012;2022-07-06T11:09:05;19.20;99.90
20858;DHT22;10589;53.636;10.012;2022-07-06T11:16:30;19.90;99.90
20858;DHT22;10589;53.636;10.012;2022-07-06T11:19:16;20.20;99.90
20858;DHT22;10589;53.636;10.012;2022-07-06T11:21:50;20.50;99.90
20858;DHT22;10589;53.636;10.012;2022-07-06T11:24:19;20.80;99.90
20858;DHT22;10589;53.636;10.012;2022-07-06T11:26:48;21.30;99.90
20858;DHT22;10589;53.636;10.012;2022-07-06T11:29:15;21.30;99.90
20858;DHT22;10589;53.636;10.012;2022-07-06T11:31:43;21.50;99.90
20858;DHT22;10589;53.636;10.012;2022-07-06T11:34:11;22.00;99.90
20858;DHT22;10589;53.636;10.012;2022-07-06T11:36:38;21.90;99.90
20858;DHT22;10589;53.636;10.012;2022-07-06T11:39:04;21.80;99.90
20858;DHT22;10589;53.636;10.012;2022-07-06T11:41:33;21.50;99.90
20858;DHT22;10589;53.636;10.012;2022-07-06T11:43:59;21.10;99.90
20858;DHT22;10589;53.636;10.012;2022-07-06T11:46:29;20.80;99.90
20858;DHT22;10589;53.636;10.012;2022-07-06T11:48:58;20.60;99.90
20858;DHT22;10589;53.636;10.012;2022-07-06T11:51:25;20.50;99.90
20858;DHT22;10589;53.636;10.012;2022-07-06T11:53:53;20.50;99.90
20858;DHT22;10589;53.636;10.012;2022-07-06T11:56:20;20.30;99.90
20858;DHT22;10589;53.636;10.012;2022-07-06T11:58:52;20.40;99.90
20858;DHT22;10589;53.636;10.012;2022-07-06T12:01:18;20.90;99.90
20858;DHT22;10589;53.636;10.012;2022-07-06T12:03:44;21.30;99.90
20858;DHT22;10589;53.636;10.012;2022-07-06T12:06:16;21.70;99.90
20858;DHT22;10589;53.636;10.012;2022-07-06T12:08:53;22.10;99.90
20858;DHT22;10589;53.636;10.012;2022-07-06T12:11:28;22.30;99.90
20858;DHT22;10589;53.636;10.012;2022-07-06T12:13:57;22.50;99.90
20858;DHT22;10589;53.636;10.012;2022-07-06T12:16:30;22.40;99.90
20858;DHT22;10589;53.636;10.012;2022-07-06T12:18:56;22.70;99.90
20858;DHT22;10589;53.636;10.012;2022-07-06T12:21:21;22.80;99.90
20858;DHT22;10589;53.636;10.012;2022-07-06T12:23:49;22.70;99.90
20858;DHT22;10589;53.636;10.012;2022-07-06T12:26:16;22.70;99.90
20858;DHT22;10589;53.636;10.012;2022-07-06T12:28:43;23.10;99.90
20858;DHT22;10589;53.636;10.012;2022-07-06T12:31:11;23.70;99.90
20858;DHT22;10589;53.636;10.012;2022-07-06T12:33:37;24.10;99.90
20858;DHT22;10589;53.636;10.012;2022-07-06T12:36:15;23.70;99.90
20858;DHT22;10589;53.636;10.012;2022-07-06T12:38:48;23.10;99.90
20858;DHT22;10589;53.636;10.012;2022-07-06T12:41:31;22.50;99.90
20858;DHT22;10589;53.636;10.012;2022-07-06T12:44:06;22.40;99.90
20858;DHT22;10589;53.636;10.012;2022-07-06T12:46:40;23.20;99.90
20858;DHT22;10589;53.636;10.012;2022-07-06T12:49:21;24.70;99.90
20858;DHT22;10589;53.636;10.012;2022-07-06T12:54:19;24.90;99.90
20858;DHT22;10589;53.636;10.012;2022-07-06T12:59:32;23.00;99.90
20858;DHT22;10589;53.636;10.012;2022-07-06T13:01:58;22.40;99.90
20858;DHT22;10589;53.636;10.012;2022-07-06T13:04:26;21.90;99.90
20858;DHT22;10589;53.636;10.012;2022-07-06T13:06:52;22.10;99.90
20858;DHT22;10589;53.636;10.012;2022-07-06T13:09:19;23.20;99.90
20858;DHT22;10589;53.636;10.012;2022-07-06T13:11:45;25.30;99.90
20858;DHT22;10589;53.636;10.012;2022-07-06T13:14:12;27.50;99.90
20858;DHT22;10589;53.636;10.012;2022-07-06T13:16:38;28.90;99.50
20858;DHT22;10589;53.636;10.012;2022-07-06T13:19:03;28.90;97.40
20858;DHT22;10589;53.636;10.012;2022-07-06T13:21:29;27.60;97.00
20858;DHT22;10589;53.636;10.012;2022-07-06T13:23:55;27.20;97.80
20858;DHT22;10589;53.636;10.012;2022-07-06T13:26:21;28.00;97.30
20858;DHT22;10589;53.636;10.012;2022-07-06T13:28:46;28.90;94.10
20858;DHT22;10589;53.636;10.012;2022-07-06T13:31:12;29.70;93.90
20858;DHT22;10589;53.636;10.012;2022-07-06T13:33:38;30.70;94.90
20858;DHT22;10589;53.636;10.012;2022-07-06T13:36:04;30.80;93.20
20858;DHT22;10589;53.636;10.012;2022-07-06T13:38:29;31.60;90.20
20858;DHT22;10589;53.636;10.012;2022-07-06T13:40:55;32.10;87.90
20858;DHT22;10589;53.636;10.012;2022-07-06T13:43:21;32.40;88.10
20858;DHT22;10589;53.636;10.012;2022-07-06T13:45:47;32.30;86.90
20858;DHT22;10589;53.636;10.012;2022-07-06T13:48:13;32.60;87.10
20858;DHT22;10589;53.636;10.012;2022-07-06T13:50:38;32.60;86.60
20858;DHT22;10589;53.636;10.012;2022-07-06T13:53:04;32.20;82.20
20858;DHT22;10589;53.636;10.012;2022-07-06T13:55:31;30.80;84.50
20858;DHT22;10589;53.636;10.012;2022-07-06T13:57:57;29.80;84.20
20858;DHT22;10589;53.636;10.012;2022-07-06T14:00:23;29.70;86.30
20858;DHT22;10589;53.636;10.012;2022-07-06T14:02:49;30.10;82.00
20858;DHT22;10589;53.636;10.012;2022-07-06T14:05:15;31.00;82.70
20858;DHT22;10589;53.636;10.012;2022-07-06T14:07:40;31.00;79.80
20858;DHT22;10589;53.636;10.012;2022-07-06T14:10:06;31.70;80.00
20858;DHT22;10589;53.636;10.012;2022-07-06T14:12:32;31.40;79.70
20858;DHT22;10589;53.636;10.012;2022-07-06T14:14:58;30.70;82.30
20858;DHT22;10589;53.636;10.012;2022-07-06T14:17:25;29.80;80.50
20858;DHT22;10589;53.636;10.012;2022-07-06T14:19:51;30.30;79.60
20858;DHT22;10589;53.636;10.012;2022-07-06T14:22:17;30.50;81.40
20858;DHT22;10589;53.636;10.012;2022-07-06T14:24:42;30.20;78.20
20858;DHT22;10589;53.636;10.012;2022-07-06T14:27:08;29.60;83.20
20858;DHT22;10589;53.636;10.012;2022-07-06T14:29:34;29.20;82.20
20858;DHT22;10589;53.636;10.012;2022-07-06T14:32:00;29.10;83.70
20858;DHT22;10589;53.636;10.012;2022-07-06T14:34:25;28.90;81.20
20858;DHT22;10589;53.636;10.012;2022-07-06T14:36:51;28.90;80.60
20858;DHT22;10589;53.636;10.012;2022-07-06T14:39:17;29.40;82.70
20858;DHT22;10589;53.636;10.012;2022-07-06T14:41:43;29.90;80.70
20858;DHT22;10589;53.636;10.012;2022-07-06T14:44:08;30.20;81.60
20858;DHT22;10589;53.636;10.012;2022-07-06T14:46:34;30.40;81.80
20858;DHT22;10589;53.636;10.012;2022-07-06T14:49:00;30.20;78.40
20858;DHT22;10589;53.636;10.012;2022-07-06T14:51:26;29.60;79.40
20858;DHT22;10589;53.636;10.012;2022-07-06T14:53:53;28.90;80.50
20858;DHT22;10589;53.636;10.012;2022-07-06T14:56:19;28.70;84.30
20858;DHT22;10589;53.636;10.012;2022-07-06T14:58:45;28.60;82.70
20858;DHT22;10589;53.636;10.012;2022-07-06T15:01:10;28.80;83.90
20858;DHT22;10589;53.636;10.012;2022-07-06T15:03:36;28.80;83.80
20858;DHT22;10589;53.636;10.012;2022-07-06T15:06:02;29.00;81.60
20858;DHT22;10589;53.636;10.012;2022-07-06T15:08:28;29.30;82.00
20858;DHT22;10589;53.636;10.012;2022-07-06T15:10:53;29.50;84.70
20858;DHT22;10589;53.636;10.012;2022-07-06T15:13:19;30.00;83.60
20858;DHT22;10589;53.636;10.012;2022-07-06T15:15:45;29.70;81.70
20858;DHT22;10589;53.636;10.012;2022-07-06T15:18:11;28.70;81.10
20858;DHT22;10589;53.636;10.012;2022-07-06T15:20:36;27.60;82.60
20858;DHT22;10589;53.636;10.012;2022-07-06T15:23:02;26.90;84.60
20858;DHT22;10589;53.636;10.012;2022-07-06T15:25:28;26.10;86.30
20858;DHT22;10589;53.636;10.012;2022-07-06T15:27:53;25.50;86.50
20858;DHT22;10589;53.636;10.012;2022-07-06T15:30:19;24.90;89.70
20858;DHT22;10589;53.636;10.012;2022-07-06T15:32:45;24.30;89.50
20858;DHT22;10589;53.636;10.012;2022-07-06T15:35:11;23.80;91.90
20858;DHT22;10589;53.636;10.012;2022-07-06T15:37:36;23.40;92.30
20858;DHT22;10589;53.636;10.012;2022-07-06T15:40:03;22.90;92.20
20858;DHT22;10589;53.636;10.012;2022-07-06T15:42:30;22.50;93.20
20858;DHT22;10589;53.636;10.012;2022-07-06T15:44:56;22.30;93.90
20858;DHT22;10589;53.636;10.012;2022-07-06T15:47:21;22.10;94.60
20858;DHT22;10589;53.636;10.012;2022-07-06T15:49:50;22.10;94.80
20858;DHT22;10589;53.636;10.012;2022-07-06T15:52:16;22.60;93.50
20858;DHT22;10589;53.636;10.012;2022-07-06T15:54:42;23.60;93.00
20858;DHT22;10589;53.636;10.012;2022-07-06T15:57:08;25.30;91.90
20858;DHT22;10589;53.636;10.012;2022-07-06T15:59:33;27.50;88.80
20858;DHT22;10589;53.636;10.012;2022-07-06T16:01:59;29.40;85.40
20858;DHT22;10589;53.636;10.012;2022-07-06T16:04:25;31.00;82.00
20858;DHT22;10589;53.636;10.012;2022-07-06T16:06:52;31.60;81.40
20858;DHT22;10589;53.636;10.012;2022-07-06T16:09:17;31.60;80.00
20858;DHT22;10589;53.636;10.012;2022-07-06T16:11:43;32.20;79.10
20858;DHT22;10589;53.636;10.012;2022-07-06T16:14:09;32.10;80.80
20858;DHT22;10589;53.636;10.012;2022-07-06T16:16:36;32.30;75.40
20858;DHT22;10589;53.636;10.012;2022-07-06T16:19:04;31.30;76.90
20858;DHT22;10589;53.636;10.012;2022-07-06T16:21:29;30.00;78.60
20858;DHT22;10589;53.636;10.012;2022-07-06T16:23:55;28.60;81.70
20858;DHT22;10589;53.636;10.012;2022-07-06T16:26:21;28.10;85.90
20858;DHT22;10589;53.636;10.012;2022-07-06T16:28:46;28.90;84.50
20858;DHT22;10589;53.636;10.012;2022-07-06T16:31:12;30.40;79.80
20858;DHT22;10589;53.636;10.012;2022-07-06T16:33:38;30.40;82.50
20858;DHT22;10589;53.636;10.012;2022-07-06T16:36:08;30.70;82.40
20858;DHT22;10589;53.636;10.012;2022-07-06T16:38:34;30.60;78.70
20858;DHT22;10589;53.636;10.012;2022-07-06T16:41:00;30.10;78.50
20858;DHT22;10589;53.636;10.012;2022-07-06T16:43:26;29.90;78.00
20858;DHT22;10589;53.636;10.012;2022-07-06T16:45:52;29.30;81.80
20858;DHT22;10589;53.636;10.012;2022-07-06T16:48:18;28.90;80.30
20858;DHT22;10589;53.636;10.012;2022-07-06T16:50:44;28.40;82.50
20858;DHT22;10589;53.636;10.012;2022-07-06T16:53:09;28.70;81.60
20858;DHT22;10589;53.636;10.012;2022-07-06T16:55:35;27.70;82.70
20858;DHT22;10589;53.636;10.012;2022-07-06T16:58:01;26.90;85.60
20858;DHT22;10589;53.636;10.012;2022-07-06T17:00:27;26.20;84.00
20858;DHT22;10589;53.636;10.012;2022-07-06T17:02:54;25.10;88.90
20858;DHT22;10589;53.636;10.012;2022-07-06T17:05:19;24.30;90.20
20858;DHT22;10589;53.636;10.012;2022-07-06T17:07:45;23.80;90.60
20858;DHT22;10589;53.636;10.012;2022-07-06T17:10:12;23.50;90.90
20858;DHT22;10589;53.636;10.012;2022-07-06T17:12:38;23.20;91.90
20858;DHT22;10589;53.636;10.012;2022-07-06T17:15:04;22.80;92.20
20858;DHT22;10589;53.636;10.012;2022-07-06T17:17:29;22.50;91.40
20858;DHT22;10589;53.636;10.012;2022-07-06T17:19:55;22.20;92.80
20858;DHT22;10589;53.636;10.012;2022-07-06T17:22:21;21.90;93.90
20858;DHT22;10589;53.636;10.012;2022-07-06T17:24:47;21.90;93.00
20858;DHT22;10589;53.636;10.012;2022-07-06T17:27:13;21.80;93.80
20858;DHT22;10589;53.636;10.012;2022-07-06T17:29:40;21.90;92.60
20858;DHT22;10589;53.636;10.012;2022-07-06T17:32:06;21.80;92.50
20858;DHT22;10589;53.636;10.012;2022-07-06T17:34:32;21.60;92.90
20858;DHT22;10589;53.636;10.012;2022-07-06T17:36:58;21.60;93.40
20858;DHT22;10589;53.636;10.012;2022-07-06T17:39:23;21.60;92.90
20858;DHT22;10589;53.636;10.012;2022-07-06T17:41:49;21.40;93.20
20858;DHT22;10589;53.636;10.012;2022-07-06T17:44:14;21.10;93.70
20858;DHT22;10589;53.636;10.012;2022-07-06T17:46:40;20.90;94.20
20858;DHT22;10589;53.636;10.012;2022-07-06T17:49:06;20.70;94.10
20858;DHT22;10589;53.636;10.012;2022-07-06T17:51:34;20.50;94.90
20858;DHT22;10589;53.636;10.012;2022-07-06T17:54:00;20.30;95.10
20858;DHT22;10589;53.636;10.012;2022-07-06T17:56:26;20.10;95.90
20858;DHT22;10589;53.636;10.012;2022-07-06T17:58:53;20.00;95.50
20858;DHT22;10589;53.636;10.012;2022-07-06T18:01:19;19.80;96.40
20858;DHT22;10589;53.636;10.012;2022-07-06T18:03:44;19.60;96.30
20858;DHT22;10589;53.636;10.012;2022-07-06T18:06:10;19.50;97.30
20858;DHT22;10589;53.636;10.012;2022-07-06T18:08:36;19.40;97.00
20858;DHT22;10589;53.636;10.012;2022-07-06T18:11:04;19.30;97.30
20858;DHT22;10589;53.636;10.012;2022-07-06T18:13:30;19.30;98.20
20858;DHT22;10589;53.636;10.012;2022-07-06T18:15:56;19.30;97.70
20858;DHT22;10589;53.636;10.012;2022-07-06T18:18:23;19.30;97.80
20858;DHT22;10589;53.636;10.012;2022-07-06T18:20:52;19.20;98.00
20858;DHT22;10589;53.636;10.012;2022-07-06T18:23:20;19.10;98.20
20858;DHT22;10589;53.636;10.012;2022-07-06T18:25:45;19.10;98.60
20858;DHT22;10589;53.636;10.012;2022-07-06T18:28:11;19.00;99.10
20858;DHT22;10589;53.636;10.012;2022-07-06T18:30:48;19.10;99.20
20858;DHT22;10589;53.636;10.012;2022-07-06T18:33:14;19.00;99.40
20858;DHT22;10589;53.636;10.012;2022-07-06T18:35:40;19.00;99.60
20858;DHT22;10589;53.636;10.012;2022-07-06T18:38:07;18.90;99.90
20858;DHT22;10589;53.636;10.012;2022-07-06T18:40:33;18.90;99.90
20858;DHT22;10589;53.636;10.012;2022-07-06T18:43:01;18.90;99.90
20858;DHT22;10589;53.636;10.012;2022-07-06T18:45:27;18.90;99.90
20858;DHT22;10589;53.636;10.012;2022-07-06T18:47:53;18.90;99.90
20858;DHT22;10589;53.636;10.012;2022-07-06T18:50:19;18.90;99.90
20858;DHT22;10589;53.636;10.012;2022-07-06T18:52:45;18.90;99.90
20858;DHT22;10589;53.636;10.012;2022-07-06T18:55:10;18.90;99.90
20858;DHT22;10589;53.636;10.012;2022-07-06T18:57:36;18.80;99.90
20858;DHT22;10589;53.636;10.012;2022-07-06T19:00:04;18.80;99.90
20858;DHT22;10589;53.636;10.012;2022-07-06T19:02:30;18.70;99.90
20858;DHT22;10589;53.636;10.012;2022-07-06T19:04:57;18.80;99.90
20858;DHT22;10589;53.636;10.012;2022-07-06T19:07:22;18.70;99.90
20858;DHT22;10589;53.636;10.012;2022-07-06T19:09:48;18.60;99.90
20858;DHT22;10589;53.636;10.012;2022-07-06T19:12:15;18.60;99.90
20858;DHT22;10589;53.636;10.012;2022-07-06T19:14:41;18.50;99.90